Time;durP1;ratioP1;P1;durP2;ratioP2;P2;SDS_P1;SDS_P2;PMS_P1;PMS_P2;Temp;Humidity;BMP_temperature;BMP_pressure;BME280_temperature;BME280_humidity;BME280_pressure;Samples;Min_cycle;Max_cycle;Signal;HPM_P1;HPM_P2
2023/11/04 00:02:10;;;;;;;18.80;12.80;;;;;;;13.32;68.55;99405.70;102106;1292;600371;-55
2023/11/04 00:04:39;;;;;;;15.50;12.70;;;;;;;13.55;67.60;99401.80;104346;1269;59313;-56
2023/11/04 00:07:08;;;;;;;21.10;16.60;;;;;;;13.62;67.51;99394.03;106152;1266;60029;-54
2023/11/04 00:09:36;;;;;;;20.40;14.90;;;;;;;13.67;67.59;99377.11;105929;1266;62243;-55
2023/11/04 00:12:17;;;;;;;16.40;13.40;;;;;;;13.71;67.59;99375.35;104238;1269;61519;-57
2023/11/04 00:14:45;;;;;;;18.00;13.50;;;;;;;13.73;67.41;99371.29;102188;1269;3376883;-57
2023/11/04 00:17:13;;;;;;;18.80;14.60;;;;;;;13.73;67.43;99369.04;105038;1256;59283;-58
2023/11/04 00:19:40;;;;;;;19.80;13.50;;;;;;;13.75;67.31;99364.04;105180;1259;59380;-56
2023/11/04 00:22:08;;;;;;;17.90;13.20;;;;;;;13.77;67.38;99362.38;105669;1260;63339;-58
2023/11/04 00:24:36;;;;;;;18.70;13.20;;;;;;;13.81;67.36;99357.79;105572;1256;61784;-56
2023/11/04 00:27:05;;;;;;;17.10;12.60;;;;;;;13.82;67.35;99352.48;105107;1259;63755;-56
2023/11/04 00:29:32;;;;;;;20.00;14.30;;;;;;;13.83;67.49;99346.23;106339;1259;59756;-56
2023/11/04 00:32:00;;;;;;;17.40;12.60;;;;;;;13.82;67.46;99343.53;104974;1257;59570;-56
2023/11/04 00:34:27;;;;;;;17.70;12.60;;;;;;;13.85;67.32;99343.90;104869;1257;72968;-55
2023/11/04 00:36:55;;;;;;;16.40;11.90;;;;;;;13.87;67.20;99336.41;106997;1258;60245;-57
2023/11/04 00:39:23;;;;;;;15.90;11.80;;;;;;;13.90;67.18;99335.63;105366;1260;62517;-54
2023/11/04 00:41:50;;;;;;;17.10;12.80;;;;;;;13.91;67.30;99341.86;105026;1260;59743;-54
2023/11/04 00:44:18;;;;;;;17.40;13.20;;;;;;;13.89;67.31;99339.79;104875;1262;59552;-55
2023/11/04 00:46:45;;;;;;;16.30;12.60;;;;;;;13.87;67.52;99344.75;105788;1262;64077;-57
2023/11/04 00:49:13;;;;;;;15.80;12.60;;;;;;;13.89;67.54;99345.61;105697;1262;61524;-54
2023/11/04 00:51:41;;;;;;;17.00;12.00;;;;;;;13.91;67.37;99344.86;105666;1262;65236;-55
2023/11/04 00:54:08;;;;;;;14.80;11.40;;;;;;;13.91;67.38;99347.23;105031;1261;59634;-54
2023/11/04 00:56:36;;;;;;;17.80;12.80;;;;;;;13.89;67.65;99340.25;106147;1256;60178;-53
2023/11/04 00:59:04;;;;;;;19.60;14.30;;;;;;;13.87;67.75;99332.41;105480;1262;62848;-55
2023/11/04 01:01:31;;;;;;;18.10;13.00;;;;;;;13.86;67.91;99334.47;105404;1257;61396;-55
2023/11/04 01:03:59;;;;;;;15.70;12.50;;;;;;;13.89;67.77;99334.06;105928;1260;63740;-54
2023/11/04 01:06:26;;;;;;;17.70;12.80;;;;;;;13.95;67.71;99327.64;105039;1262;60687;-54
2023/11/04 01:08:54;;;;;;;18.00;14.10;;;;;;;14.01;67.77;99322.55;105462;1256;59730;-56
2023/11/04 01:11:22;;;;;;;17.30;12.40;;;;;;;14.04;67.68;99323.34;106247;1259;64161;-55
2023/11/04 01:13:49;;;;;;;18.70;15.20;;;;;;;14.06;67.88;99320.98;105505;1257;61537;-58
2023/11/04 01:16:17;;;;;;;17.40;13.00;;;;;;;14.06;67.87;99313.55;106305;1259;63753;-55
2023/11/04 01:18:44;;;;;;;18.30;13.10;;;;;;;14.12;67.71;99305.48;105332;1260;59635;-54
2023/11/04 01:21:12;;;;;;;17.70;12.90;;;;;;;14.17;67.60;99297.32;106009;1258;59819;-55
2023/11/04 01:23:40;;;;;;;17.50;14.00;;;;;;;14.21;67.45;99297.61;105411;1257;64699;-55
2023/11/04 01:26:07;;;;;;;16.70;13.20;;;;;;;14.23;67.53;99306.31;105473;1256;61396;-54
2023/11/04 01:28:35;;;;;;;19.30;14.10;;;;;;;14.24;67.64;99317.56;105225;1259;63833;-54
2023/11/04 01:31:03;;;;;;;17.80;13.20;;;;;;;14.25;67.69;99322.87;106575;1257;59635;-56
2023/11/04 01:33:31;;;;;;;18.60;13.00;;;;;;;14.26;67.63;99318.14;106262;1260;59753;-55
2023/11/04 01:35:58;;;;;;;17.10;12.10;;;;;;;14.30;67.25;99318.23;105344;1256;64116;-55
2023/11/04 01:38:27;;;;;;;15.60;11.90;;;;;;;14.33;67.16;99328.95;105390;1256;61344;-58
2023/11/04 01:40:54;;;;;;;16.80;12.50;;;;;;;14.35;67.18;99337.56;106204;1256;62465;-54
2023/11/04 01:43:26;;;;;;;17.20;11.90;;;;;;;14.38;67.39;99344.63;105111;1256;59731;-55
2023/11/04 01:45:57;;;;;;;15.30;11.90;;;;;;;14.40;67.16;99348.25;105676;1260;59533;-55
2023/11/04 01:48:25;;;;;;;16.80;12.20;;;;;;;14.37;67.26;99339.60;105647;1260;64134;-54
2023/11/04 01:50:52;;;;;;;16.20;11.30;;;;;;;14.39;66.94;99329.30;105611;1260;61593;-54
2023/11/04 01:53:21;;;;;;;15.90;10.70;;;;;;;14.43;66.82;99309.42;105891;1260;63729;-54
2023/11/04 01:55:49;;;;;;;17.20;12.50;;;;;;;14.46;66.83;99303.09;106836;1257;60592;-53
2023/11/04 01:58:16;;;;;;;18.10;12.40;;;;;;;14.45;66.89;99310.02;105004;1256;59670;-53
2023/11/04 02:00:44;;;;;;;18.20;13.60;;;;;;;14.43;67.09;99318.02;105043;1262;64238;-59
2023/11/04 02:03:12;;;;;;;17.40;12.40;;;;;;;14.42;67.17;99339.50;106490;1260;60311;-53
2023/11/04 02:05:39;;;;;;;17.70;12.50;;;;;;;14.47;66.94;99353.56;105015;1256;63684;-54
2023/11/04 02:08:08;;;;;;;14.80;11.10;;;;;;;14.51;66.83;99362.13;106043;1256;59738;-54
2023/11/04 02:10:35;;;;;;;15.30;11.50;;;;;;;14.54;66.81;99373.16;105308;1257;59766;-54
2023/11/04 02:13:03;;;;;;;17.50;12.40;;;;;;;14.53;67.00;99388.91;105690;1262;64808;-58
2023/11/04 02:15:31;;;;;;;18.00;12.20;;;;;;;14.51;67.01;99394.61;105321;1257;61433;-55
2023/11/04 02:17:58;;;;;;;18.80;13.20;;;;;;;14.47;67.09;99395.94;105568;1256;62505;-52
2023/11/04 02:20:26;;;;;;;17.50;13.20;;;;;;;14.47;67.25;99390.06;105377;1260;60931;-51
2023/11/04 02:22:53;;;;;;;17.60;12.00;;;;;;;14.52;67.29;99387.05;104902;1262;59214;-57
2023/11/04 02:25:21;;;;;;;20.60;14.20;;;;;;;14.57;67.21;99377.35;105262;1256;62826;-58
2023/11/04 02:27:49;;;;;;;21.10;15.70;;;;;;;14.60;67.28;99365.59;105732;1262;61521;-56
2023/11/04 02:30:16;;;;;;;19.50;14.60;;;;;;;14.60;67.39;99367.74;105729;1257;63804;-56
2023/11/04 02:32:44;;;;;;;18.60;13.20;;;;;;;14.60;67.35;99370.52;105510;1262;59600;-57
2023/11/04 02:35:14;;;;;;;18.30;13.30;;;;;;;14.65;67.32;99364.23;105064;1256;59778;-54
2023/11/04 02:37:42;;;;;;;21.10;13.90;;;;;;;14.73;67.11;99363.59;105661;1260;62929;-55
2023/11/04 02:40:10;;;;;;;21.80;15.10;;;;;;;14.79;67.08;99374.61;105875;1255;61315;-55
2023/11/04 02:42:39;;;;;;;22.80;15.40;;;;;;;14.80;67.13;99379.67;105234;1258;63661;-54
2023/11/04 02:45:08;;;;;;;20.20;14.90;;;;;;;14.79;67.06;99385.10;105955;1260;59811;-54
2023/11/04 02:47:35;;;;;;;25.30;16.30;;;;;;;14.78;67.07;99390.91;105496;1258;59837;-54
2023/11/04 02:50:04;;;;;;;24.70;16.20;;;;;;;14.75;67.07;99396.59;105230;1260;64367;-54
2023/11/04 02:52:31;;;;;;;21.80;14.70;;;;;;;14.75;67.03;99389.50;106171;1260;60389;-53
2023/11/04 02:54:59;;;;;;;20.70;15.30;;;;;;;14.77;66.97;99389.81;104914;1262;63769;-53
2023/11/04 02:57:26;;;;;;;20.70;15.20;;;;;;;14.79;67.03;99387.45;105530;1256;59715;-55
2023/11/04 02:59:55;;;;;;;22.50;16.30;;;;;;;14.81;67.21;99398.19;105359;1256;59633;-53
2023/11/04 03:02:23;;;;;;;25.70;16.40;;;;;;;14.78;67.36;99397.98;105527;1262;64163;-53
2023/11/04 03:04:53;;;;;;;20.20;14.80;;;;;;;14.72;67.53;99390.18;106249;1260;61670;-53
2023/11/04 03:07:21;;;;;;;22.50;15.00;;;;;;;14.74;67.59;99391.20;105729;1258;63685;-55
2023/11/04 03:09:49;;;;;;;22.90;15.70;;;;;;;14.78;67.58;99385.09;105182;1256;60044;-54
2023/11/04 03:12:17;;;;;;;22.10;15.70;;;;;;;14.81;67.53;99372.58;105198;1260;59584;-54
2023/11/04 03:14:46;;;;;;;28.60;18.50;;;;;;;14.82;67.64;99370.85;105853;1259;62856;-54
2023/11/04 03:17:14;;;;;;;27.30;17.00;;;;;;;14.82;67.80;99369.23;105177;1259;60186;-50
2023/11/04 03:19:45;;;;;;;28.00;17.40;;;;;;;14.81;67.84;99365.80;105869;1257;63766;-57
2023/11/04 03:22:12;;;;;;;25.80;17.70;;;;;;;14.78;67.88;99357.58;105446;1262;61487;-55
2023/11/04 03:24:44;;;;;;;27.50;17.30;;;;;;;14.80;67.96;99358.89;105176;1256;59682;-55
2023/11/04 03:27:14;;;;;;;28.00;18.00;;;;;;;14.84;68.15;99363.69;105056;1257;62891;-54
2023/11/04 03:29:42;;;;;;;27.60;18.60;;;;;;;14.87;68.26;99366.94;105086;1257;60384;-54
2023/11/04 03:32:10;;;;;;;31.70;19.90;;;;;;;14.87;68.28;99371.35;105819;1256;64339;-55
2023/11/04 03:34:38;;;;;;;29.90;18.70;;;;;;;14.88;68.20;99371.61;105377;1262;59694;-54
2023/11/04 03:37:06;;;;;;;26.80;18.90;;;;;;;14.89;68.08;99364.42;104995;1260;60454;-54
2023/11/04 03:39:34;;;;;;;33.40;18.20;;;;;;;14.91;68.11;99360.50;105053;1261;62859;-53
2023/11/04 03:42:02;;;;;;;25.00;17.90;;;;;;;14.93;68.13;99353.68;105516;1262;61368;-56
2023/11/04 03:44:30;;;;;;;32.20;18.70;;;;;;;14.92;68.19;99340.27;106275;1256;63756;-52
2023/11/04 03:46:57;;;;;;;26.40;18.80;;;;;;;14.88;68.29;99335.91;105804;1258;59803;-52
2023/11/04 03:49:25;;;;;;;27.00;17.80;;;;;;;14.84;68.50;99338.80;105289;1255;59769;-50
2023/11/04 03:51:54;;;;;;;24.70;16.10;;;;;;;14.84;68.57;99330.69;105954;1256;64148;-51
2023/11/04 03:54:21;;;;;;;24.80;16.70;;;;;;;14.84;68.45;99331.13;105572;1261;60101;-54
2023/11/04 03:56:49;;;;;;;24.00;15.60;;;;;;;14.83;68.61;99332.45;105117;1261;64252;-52
2023/11/04 03:59:17;;;;;;;22.40;16.70;;;;;;;14.82;68.94;99334.96;105158;1258;59673;-52
2023/11/04 04:01:44;;;;;;;23.70;16.80;;;;;;;14.81;69.17;99327.33;105881;1257;59621;-52
2023/11/04 04:04:12;;;;;;;22.90;15.40;;;;;;;14.79;69.07;99313.67;105947;1260;63385;-48
2023/11/04 04:06:39;;;;;;;23.20;15.70;;;;;;;14.80;69.10;99311.09;106251;1259;61912;-52
2023/11/04 04:09:07;;;;;;;20.50;13.90;;;;;;;14.80;69.09;99312.48;105621;1257;63774;-50
2023/11/04 04:11:34;;;;;;;20.20;14.80;;;;;;;14.82;69.18;99316.09;105673;1260;60386;-53
2023/11/04 04:14:02;;;;;;;22.30;15.80;;;;;;;14.86;69.36;99317.46;105130;1256;60557;-50
2023/11/04 04:16:29;;;;;;;22.90;15.60;;;;;;;14.84;69.44;99319.20;105440;1260;64945;-53
2023/11/04 04:18:57;;;;;;;22.20;16.00;;;;;;;14.80;69.32;99314.09;105877;1260;62128;-52
2023/11/04 04:21:25;;;;;;;21.60;14.80;;;;;;;14.80;69.42;99311.21;105295;1260;63807;-49
2023/11/04 04:23:52;;;;;;;21.00;14.00;;;;;;;14.85;69.39;99312.42;105370;1260;60501;-51
2023/11/04 04:26:20;;;;;;;20.90;14.30;;;;;;;14.88;69.50;99318.51;105140;1260;60355;-51
2023/11/04 04:28:48;;;;;;;23.70;16.40;;;;;;;14.87;69.60;99320.99;105359;1256;64924;-50
2023/11/04 04:31:16;;;;;;;22.00;16.30;;;;;;;14.87;69.87;99323.88;105071;1261;61373;-50
2023/11/04 04:33:44;;;;;;;21.50;15.50;;;;;;;14.87;69.97;99321.75;105809;1262;62497;-53
2023/11/04 04:36:12;;;;;;;23.20;15.00;;;;;;;14.90;69.90;99322.16;105096;1260;60543;-54
2023/11/04 04:38:40;;;;;;;22.20;15.00;;;;;;;14.93;69.62;99325.45;105773;1260;60350;-51
2023/11/04 04:41:08;;;;;;;19.80;14.60;;;;;;;14.96;69.69;99318.78;104974;1260;64931;-51
2023/11/04 04:43:36;;;;;;;21.50;14.60;;;;;;;14.96;69.79;99317.02;105021;1262;60444;-51
2023/11/04 04:46:04;;;;;;;22.10;16.20;;;;;;;14.96;69.99;99325.84;105184;1258;63722;-50
2023/11/04 04:48:33;;;;;;;22.50;14.60;;;;;;;14.96;69.90;99324.41;105425;1260;60383;-52
2023/11/04 04:51:01;;;;;;;21.90;14.10;;;;;;;14.97;69.64;99322.92;105299;1261;60447;-51
2023/11/04 04:53:29;;;;;;;19.40;14.90;;;;;;;14.97;69.55;99314.16;105492;1260;63646;-53
2023/11/04 04:55:56;;;;;;;23.10;14.40;;;;;;;14.99;69.65;99305.70;105462;1257;61909;-52
2023/11/04 04:58:24;;;;;;;22.60;15.10;;;;;;;15.00;69.58;99300.51;105416;1260;62745;-54
2023/11/04 05:00:51;;;;;;;19.50;14.70;;;;;;;14.98;69.84;99303.30;108831;1257;59201;-54
2023/11/04 05:03:19;;;;;;;23.20;15.10;;;;;;;14.97;69.89;99303.08;106494;1258;59414;-55
2023/11/04 05:05:47;;;;;;;21.60;14.80;;;;;;;14.96;69.76;99305.73;106332;1256;63996;-58
2023/11/04 05:08:15;;;;;;;20.70;14.40;;;;;;;14.96;69.60;99309.58;105041;1260;61413;-55
2023/11/04 05:10:42;;;;;;;21.60;13.80;;;;;;;15.00;69.84;99313.02;104844;1257;63763;-61
2023/11/04 05:13:10;;;;;;;19.00;13.90;;;;;;;15.03;69.80;99311.89;105643;1256;60573;-55
2023/11/04 05:15:38;;;;;;;20.10;13.90;;;;;;;15.07;69.71;99308.36;105101;1261;60474;-56
2023/11/04 05:18:05;;;;;;;21.00;15.00;;;;;;;15.06;69.70;99309.52;106368;1260;64967;-55
2023/11/04 05:20:33;;;;;;;22.10;14.60;;;;;;;15.00;69.87;99316.30;105658;1257;61425;-55
2023/11/04 05:23:00;;;;;;;20.00;14.70;;;;;;;14.98;70.12;99322.27;105274;1260;62442;-57
2023/11/04 05:25:28;;;;;;;20.10;14.50;;;;;;;14.96;70.03;99329.48;105052;1257;60495;-57
2023/11/04 05:27:56;;;;;;;20.10;14.90;;;;;;;14.98;69.99;99333.00;105667;1254;60536;-56
2023/11/04 05:30:25;;;;;;;22.40;14.40;;;;;;;15.02;70.20;99331.40;105276;1259;64918;-55
2023/11/04 05:32:53;;;;;;;20.00;13.20;;;;;;;15.08;70.24;99328.23;105730;1257;60513;-55
2023/11/04 05:35:22;;;;;;;21.90;14.60;;;;;;;15.08;70.22;99329.83;105788;1259;64239;-54
2023/11/04 05:37:49;;;;;;;19.80;14.20;;;;;;;15.03;70.45;99330.48;105710;1258;60444;-55
2023/11/04 05:40:17;;;;;;;17.90;12.70;;;;;;;15.00;70.47;99327.15;105306;1254;60531;-55
2023/11/04 05:42:45;;;;;;;19.30;12.80;;;;;;;15.00;70.44;99335.27;105955;1258;64988;-56
2023/11/04 05:45:16;;;;;;;18.10;12.80;;;;;;;15.03;70.51;99333.63;105410;1257;61369;-55
2023/11/04 05:47:46;;;;;;;16.70;11.90;;;;;;;15.12;70.71;99326.08;105324;1252;63810;-55
2023/11/04 05:50:14;;;;;;;17.00;12.00;;;;;;;15.17;70.63;99325.83;105186;1257;60548;-55
2023/11/04 05:52:44;;;;;;;17.20;12.50;;;;;;;15.20;70.76;99324.45;105330;1251;60448;-57
2023/11/04 05:55:12;;;;;;;15.20;11.50;;;;;;;15.25;70.95;99329.58;105526;1254;64891;-55
2023/11/04 05:57:40;;;;;;;15.90;11.10;;;;;;;15.27;70.80;99326.80;105698;1256;60354;-55
2023/11/04 06:00:11;;;;;;;15.60;11.60;;;;;;;15.29;70.31;99327.45;106784;1253;63699;-55
2023/11/04 06:02:39;;;;;;;14.30;10.30;;;;;;;15.32;70.10;99326.23;105680;1254;60556;-55
2023/11/04 06:05:08;;;;;;;14.90;10.10;;;;;;;15.36;70.24;99326.69;105638;1254;60498;-55
2023/11/04 06:07:36;;;;;;;14.00;9.70;;;;;;;15.44;70.50;99323.31;105314;1259;72675;-55
2023/11/04 06:10:08;;;;;;;14.00;10.40;;;;;;;15.50;70.41;99325.77;105298;1258;61606;-56
2023/11/04 06:12:36;;;;;;;15.20;10.00;;;;;;;15.54;70.23;99325.96;105629;1254;63794;-54
2023/11/04 06:15:04;;;;;;;14.40;9.10;;;;;;;15.58;69.92;99330.63;105622;1254;60457;-56
2023/11/04 06:17:32;;;;;;;12.30;8.50;;;;;;;15.65;69.80;99325.74;106732;1257;59613;-54
2023/11/04 06:20:00;;;;;;;13.10;9.00;;;;;;;15.70;69.34;99326.99;105836;1254;65028;-54
2023/11/04 06:22:28;;;;;;;14.50;10.20;;;;;;;15.73;69.45;99321.42;105136;1258;61547;-55
2023/11/04 06:24:55;;;;;;;12.90;9.60;;;;;;;15.78;69.50;99316.65;105382;1254;63782;-55
2023/11/04 06:27:23;;;;;;;14.20;10.00;;;;;;;15.82;69.42;99318.51;105800;1258;60547;-52
2023/11/04 06:29:50;;;;;;;12.90;9.00;;;;;;;15.86;69.36;99313.46;105704;1254;60557;-53
2023/11/04 06:32:18;;;;;;;15.50;10.50;;;;;;;15.90;69.11;99314.99;106304;1257;63677;-54
2023/11/04 06:34:46;;;;;;;22.30;13.40;;;;;;;15.97;69.14;99318.77;106539;1253;61528;-56
2023/11/04 06:37:14;;;;;;;15.00;10.70;;;;;;;16.05;68.92;99324.77;105162;1256;62554;-55
2023/11/04 06:39:42;;;;;;;17.40;12.50;;;;;;;16.04;68.56;99332.24;105226;1254;60815;-56
2023/11/04 06:42:14;;;;;;;16.10;10.70;;;;;;;16.01;68.80;99323.42;108428;1254;60551;-56
2023/11/04 06:44:41;;;;;;;13.90;10.40;;;;;;;15.99;68.67;99318.74;105523;1258;64961;-55
2023/11/04 06:47:09;;;;;;;17.00;10.50;;;;;;;16.04;68.46;99315.80;105440;1257;61380;-57
2023/11/04 06:49:38;;;;;;;15.10;10.40;;;;;;;16.11;68.35;99316.90;105712;1258;64698;-55
2023/11/04 06:52:05;;;;;;;13.40;9.80;;;;;;;16.19;68.36;99318.10;105383;1258;60566;-55
2023/11/04 06:54:33;;;;;;;16.00;10.40;;;;;;;16.27;68.40;99318.64;105341;1254;60050;-56
2023/11/04 06:57:01;;;;;;;15.20;10.80;;;;;;;16.30;68.20;99310.40;105482;1253;66021;-57
2023/11/04 06:59:28;;;;;;;14.90;10.80;;;;;;;16.31;68.12;99302.48;105641;1253;61426;-57
2023/11/04 07:01:56;;;;;;;13.50;10.50;;;;;;;16.28;68.04;99310.82;105407;1258;63765;-55
2023/11/04 07:04:23;;;;;;;16.40;10.80;;;;;;;16.29;67.98;99319.96;105728;1255;60504;-55
2023/11/04 07:06:51;;;;;;;13.10;9.60;;;;;;;16.30;67.98;99332.52;105690;1257;60457;-57
2023/11/04 07:09:19;;;;;;;14.40;10.00;;;;;;;16.34;67.93;99336.33;106363;1253;64841;-56
2023/11/04 07:11:46;;;;;;;15.70;10.80;;;;;;;16.40;67.85;99329.08;105376;1254;61373;-57
2023/11/04 07:14:16;;;;;;;14.90;10.20;;;;;;;16.43;67.79;99321.36;105909;1254;64029;-56
2023/11/04 07:16:44;;;;;;;14.30;11.10;;;;;;;16.43;67.62;99310.45;109054;1254;58186;-56
2023/11/04 07:19:13;;;;;;;13.60;9.60;;;;;;;16.41;67.65;99307.46;108008;1251;58443;-54
2023/11/04 07:21:42;;;;;;;14.00;10.50;;;;;;;16.41;67.55;99308.55;105395;1254;64876;-56
2023/11/04 07:24:10;;;;;;;13.20;9.10;;;;;;;16.44;67.44;99306.17;106083;1254;61276;-58
2023/11/04 07:26:37;;;;;;;13.50;9.70;;;;;;;16.49;67.56;99307.67;105377;1258;63723;-58
2023/11/04 07:29:06;;;;;;;15.80;11.30;;;;;;;16.55;67.49;99307.08;105338;1253;60506;-59
2023/11/04 07:31:35;;;;;;;15.00;10.00;;;;;;;16.53;67.21;99309.19;105790;1257;62259;-57
2023/11/04 07:34:03;;;;;;;14.70;10.60;;;;;;;16.46;67.22;99307.27;105818;1257;65393;-61
2023/11/04 07:36:30;;;;;;;13.70;9.10;;;;;;;16.43;67.08;99308.46;105529;1254;70403;-59
2023/11/04 07:38:58;;;;;;;13.50;10.20;;;;;;;16.45;67.15;99313.89;104863;1254;63772;-58
2023/11/04 07:41:26;;;;;;;13.80;10.00;;;;;;;16.47;67.23;99318.42;105519;1254;60187;-58
2023/11/04 07:43:53;;;;;;;13.20;10.10;;;;;;;16.46;67.22;99322.79;105690;1253;60480;-61
2023/11/04 07:46:23;;;;;;;13.60;10.10;;;;;;;16.43;67.14;99316.66;105235;1254;64904;-59
2023/11/04 07:48:50;;;;;;;14.80;10.50;;;;;;;16.38;67.21;99305.21;107002;1253;60411;-59
2023/11/04 07:51:18;;;;;;;13.40;9.90;;;;;;;16.35;67.27;99306.20;105919;1254;65044;-57
2023/11/04 07:53:46;;;;;;;13.60;9.70;;;;;;;16.36;67.16;99309.77;105381;1255;60455;-59
2023/11/04 07:56:14;;;;;;;15.70;10.70;;;;;;;16.34;67.27;99305.46;106473;1254;60410;-59
2023/11/04 07:58:42;;;;;;;15.70;9.70;;;;;;;16.32;67.50;99302.33;105834;1257;64910;-57
2023/11/04 08:01:09;;;;;;;13.30;9.90;;;;;;;16.32;67.86;99303.46;106673;1254;62118;-57
2023/11/04 08:03:37;;;;;;;13.30;10.10;;;;;;;16.30;67.67;99298.52;105233;1254;63743;-57
2023/11/04 08:06:05;;;;;;;14.00;9.90;;;;;;;16.32;67.66;99298.04;107640;1253;60472;-58
2023/11/04 08:08:33;;;;;;;13.90;10.00;;;;;;;16.35;67.54;99294.80;106168;1254;60384;-60
2023/11/04 08:11:00;;;;;;;13.30;9.40;;;;;;;16.37;67.74;99291.48;105425;1254;64947;-57
2023/11/04 08:13:28;;;;;;;16.40;11.00;;;;;;;16.41;68.07;99288.02;105113;1258;60550;-57
2023/11/04 08:15:56;;;;;;;15.60;11.20;;;;;;;16.43;68.00;99287.58;106363;1254;64722;-57
2023/11/04 08:18:30;;;;;;;15.50;11.30;;;;;;;16.43;67.98;99284.31;105252;1257;61677;-58
2023/11/04 08:21:00;;;;;;;13.70;10.00;;;;;;;16.45;68.04;99284.91;105568;1257;60758;-57
2023/11/04 08:23:28;;;;;;;14.20;9.70;;;;;;;16.49;67.89;99288.10;105499;1254;65381;-57
2023/11/04 08:25:56;;;;;;;14.10;11.30;;;;;;;16.50;67.89;99297.14;106003;1257;60543;-59
2023/11/04 08:28:25;;;;;;;15.00;10.80;;;;;;;16.52;68.18;99304.32;105726;1254;63772;-57
2023/11/04 08:30:53;;;;;;;16.40;11.30;;;;;;;16.53;68.17;99306.23;105636;1257;60569;-59
2023/11/04 08:33:21;;;;;;;15.80;10.80;;;;;;;16.53;68.16;99303.21;106614;1257;60457;-58
2023/11/04 08:35:48;;;;;;;15.70;10.60;;;;;;;16.54;68.00;99297.78;106476;1256;72067;-57
2023/11/04 08:38:17;;;;;;;15.90;10.60;;;;;;;16.57;68.01;99292.66;106393;1253;60522;-58
2023/11/04 08:40:45;;;;;;;15.70;11.90;;;;;;;16.58;67.94;99286.69;105299;1254;64067;-58
2023/11/04 08:43:13;;;;;;;15.80;11.10;;;;;;;16.58;68.08;99282.67;105574;1256;60448;-58
2023/11/04 08:45:40;;;;;;;16.30;11.40;;;;;;;16.55;68.30;99288.27;106025;1254;60378;-59
2023/11/04 08:48:08;;;;;;;14.10;10.70;;;;;;;16.56;68.43;99293.80;105322;1253;67666;-59
2023/11/04 08:50:36;;;;;;;15.80;10.50;;;;;;;16.56;68.17;99286.57;105276;1254;61183;-55
2023/11/04 08:53:04;;;;;;;15.80;11.20;;;;;;;16.57;68.22;99275.73;105460;1254;62513;-52
2023/11/04 08:55:32;;;;;;;14.60;11.80;;;;;;;16.58;68.14;99266.98;105938;1254;60537;-55
2023/11/04 08:58:00;;;;;;;17.20;12.70;;;;;;;16.58;68.36;99267.39;105284;1253;62138;-56
2023/11/04 09:00:29;;;;;;;18.30;11.80;;;;;;;16.56;68.49;99273.30;105442;1255;64925;-57
2023/11/04 09:02:56;;;;;;;14.80;11.80;;;;;;;16.53;68.40;99276.09;105908;1256;61433;-55
2023/11/04 09:05:24;;;;;;;16.30;11.40;;;;;;;16.54;68.37;99266.64;105012;1258;63743;-54
2023/11/04 09:08:00;;;;;;;;;;;;;;;16.56;68.53;99264.48;106031;1254;60417;-53
2023/11/04 09:10:28;;;;;;;16.70;12.70;;;;;;;16.58;68.45;99263.64;105541;1253;60710;-55
2023/11/04 09:12:56;;;;;;;20.20;12.30;;;;;;;16.60;68.55;99260.00;105791;1252;64900;-53
2023/11/04 09:15:24;;;;;;;20.70;13.40;;;;;;;16.60;68.69;99252.29;105131;1257;61603;-54
2023/11/04 09:17:52;;;;;;;18.20;13.00;;;;;;;16.59;68.90;99240.89;106114;1254;63786;-53
2023/11/04 09:20:20;;;;;;;19.60;13.80;;;;;;;16.60;68.98;99233.17;105384;1253;60460;-52
2023/11/04 09:22:48;;;;;;;16.20;12.10;;;;;;;16.65;68.97;99232.33;105364;1254;60556;-57
2023/11/04 09:25:16;;;;;;;19.50;13.60;;;;;;;16.72;68.76;99230.61;105892;1257;64909;-52
2023/11/04 09:27:43;;;;;;;17.90;13.40;;;;;;;16.76;68.66;99224.98;105901;1254;60527;-49
2023/11/04 09:30:12;;;;;;;21.10;14.00;;;;;;;16.80;68.79;99216.89;105664;1253;63716;-55
2023/11/04 09:32:40;;;;;;;17.30;13.50;;;;;;;16.83;68.97;99203.67;106076;1253;60562;-57
2023/11/04 09:35:09;;;;;;;20.30;14.60;;;;;;;16.81;68.61;99203.86;107033;1254;60358;-57
2023/11/04 09:37:44;;;;;;;21.20;14.10;;;;;;;16.79;68.54;99207.27;106167;1253;64838;-55
2023/11/04 09:40:12;;;;;;;19.00;14.20;;;;;;;16.79;68.59;99204.04;105817;1256;61530;-56
2023/11/04 09:42:41;;;;;;;18.80;13.80;;;;;;;16.80;68.81;99199.48;106042;1257;62482;-55
2023/11/04 09:45:10;;;;;;;21.10;14.50;;;;;;;16.81;68.91;99199.65;105388;1254;60655;-56
2023/11/04 09:47:37;;;;;;;23.50;16.20;;;;;;;16.81;69.01;99195.98;105314;1254;60466;-56
2023/11/04 09:50:06;;;;;;;21.20;15.80;;;;;;;16.82;69.24;99181.64;105141;1253;67577;-57
2023/11/04 09:52:34;;;;;;;18.90;13.20;;;;;;;16.87;69.47;99170.83;106062;1257;61353;-55
2023/11/04 09:55:02;;;;;;;21.20;13.90;;;;;;;16.94;69.24;99165.06;105071;1254;62749;-56
2023/11/04 09:57:29;;;;;;;20.20;14.70;;;;;;;17.00;69.11;99165.84;105315;1257;60582;-52
2023/11/04 09:59:57;;;;;;;20.60;14.40;;;;;;;17.07;68.99;99162.08;105676;1252;60398;-53
2023/11/04 10:02:25;;;;;;;25.20;15.40;;;;;;;17.11;68.97;99154.84;105015;1253;65009;-55
2023/11/04 10:04:53;;;;;;;22.70;15.40;;;;;;;17.12;68.74;99155.83;105158;1253;61610;-55
2023/11/04 10:07:22;;;;;;;23.30;15.00;;;;;;;17.08;68.57;99155.56;105753;1253;63735;-55
2023/11/04 10:09:50;;;;;;;24.20;14.90;;;;;;;17.02;68.59;99157.84;105113;1254;60566;-49
2023/11/04 10:12:18;;;;;;;22.50;14.90;;;;;;;17.00;68.90;99151.90;109288;1253;58119;-54
2023/11/04 10:14:46;;;;;;;19.50;14.00;;;;;;;17.04;69.00;99153.80;109069;1253;63683;-54
2023/11/04 10:17:14;;;;;;;21.00;13.60;;;;;;;17.10;69.00;99157.09;109130;1253;69278;-54
2023/11/04 10:19:42;;;;;;;21.80;14.20;;;;;;;17.15;69.03;99156.73;109031;1254;62532;-54
2023/11/04 10:22:09;;;;;;;22.70;15.50;;;;;;;17.15;68.69;99155.42;109142;1254;62313;-53
2023/11/04 10:24:37;;;;;;;21.60;15.40;;;;;;;17.12;68.98;99149.09;107735;1254;60380;-53
2023/11/04 10:27:04;;;;;;;19.40;14.10;;;;;;;17.10;69.06;99151.64;105161;1254;65951;-54
2023/11/04 10:29:33;;;;;;;18.50;12.80;;;;;;;17.10;68.98;99151.84;105368;1257;60540;-53
2023/11/04 10:32:03;;;;;;;16.80;12.40;;;;;;;17.10;69.08;99144.56;105298;1254;63814;-54
2023/11/04 10:34:31;;;;;;;16.30;12.00;;;;;;;17.08;69.29;99145.05;105570;1253;60529;-53
2023/11/04 10:36:59;;;;;;;18.30;13.10;;;;;;;17.06;69.48;99138.90;107213;1253;60591;-51
2023/11/04 10:39:42;;;;;;;18.10;13.20;;;;;;;17.06;69.87;99131.23;105244;1258;77674;-51
2023/11/04 10:42:11;;;;;;;20.60;12.90;;;;;;;17.08;69.99;99117.86;105322;1257;73052;-53
2023/11/04 10:44:42;;;;;;;20.10;12.40;;;;;;;17.10;70.06;99108.09;105412;1257;74799;-54
2023/11/04 10:47:23;;;;;;;16.00;11.00;;;;;;;17.15;70.23;99097.77;105384;1257;61177;-55
2023/11/04 10:50:15;;;;;;;17.70;12.40;;;;;;;17.22;70.18;99092.50;105801;1255;60534;-54
2023/11/04 10:53:02;;;;;;;17.20;11.70;;;;;;;17.28;70.07;99096.73;105872;1253;64936;-51
2023/11/04 10:55:33;;;;;;;21.60;12.60;;;;;;;17.31;69.84;99100.80;105644;1257;60672;-54
2023/11/04 10:58:07;;;;;;;20.30;13.00;;;;;;;17.32;69.90;99108.30;106447;1253;62619;-53
2023/11/04 11:14:05;;;;;;;20.20;12.60;;;;;;;17.38;70.10;99092.48;102779;1286;604766;-54
2023/11/04 11:16:32;;;;;;;16.20;11.90;;;;;;;17.81;68.33;99081.11;105635;1268;3422522;-55
2023/11/04 11:19:10;;;;;;;19.00;12.10;;;;;;;17.79;68.17;99082.41;108370;1270;57046;-53
2023/11/04 11:21:49;;;;;;;15.80;11.80;;;;;;;17.78;68.24;99082.33;108483;1265;63734;-52
2023/11/04 11:24:20;;;;;;;21.10;12.60;;;;;;;17.78;68.47;99081.71;108467;1264;61568;-54
2023/11/04 11:26:49;;;;;;;20.70;12.70;;;;;;;17.80;68.63;99076.35;108503;1264;63960;-55
2023/11/04 11:29:24;;;;;;;18.70;13.30;;;;;;;17.79;68.71;99084.13;108510;1267;57214;-54